Current | Forecast
Updated: 4:55 AM JST on October 20, 2017
Observed at Iwakuni MCAS, Japan
Temperature 61°F
Humidity 93%
Dew Point 59°F
Wind North at 5 mph
Pressure 29.99 in (Rising)
Conditions Light Rain Showers
Visibility 3.7 miles
UV 0 out of 16
Clouds (FEW) : 800 ft
Mostly Cloudy (BKN) : 1500 ft
Overcast (OVC) : 3000 ft
Yesterday's Maximum 63°F
Yesterday's Minimum 58°F approx.
Yesterday's Heating Degree Days 5 approx.
Sunrise6:21 AM JST
Sunset5:33 PM JST
Moon Rise6:26 AM JST
Moon Set6:07 PM JST
Moon PhaseMoon Phase
New Moon
Raw METARMETAR RJOI 191955Z 35004KT 6000 -SHRA FEW008 BKN015 OVC030 16/15 A2999 RMK SHRAE00B23 SLP154 P0002 T01610150


Monday
. High: 71° F.
Tuesday
. High: 71° F.
Wednesday
. High: 69° F.
Thursday
. High: 71° F.
Friday
. High: 71° F.
Saturday
. High: 71° F.
Sunday
. High: 75° F.
Monday
. High: 77° F.

Units: English | Metric

Find the Weather for any City, State or Zipcode, or Country:

U.S. State List | Severe Weather | Tropical Storms | Ski Conditions
United States | Canada | Central America | South America | Asia | Europe | Australia | Africa | Islands

Weather Underground

© Copyright 2017
The Weather Company, LLC